Chester, New York
Current Conditions -  °F | °C
As of 5:54 PM on Thursday 23 Oct 2014 (Local Time) from KMGJ Reporting Station
Overcast Overcast  
Wind Chill: 51°   Ceiling: 2900
Heat Index: 51°   Visibility: 10mi
Dew Point: 47°   Wind: 3mph
Humidity: 86%   Direction: 360°N
Pressure: 29.76"   Gusts: NA
Location:  41.36°N, 74.27°W
Report Text: KMGJ 232154Z AUTO 36003KT 10SM FEW022 OVC029 11/08 A2976 RMK AO2 SLP077 T01060083 TSNO
Loading
Personal Weather Stations






























Interactive Weather Map
Tropical Storm Tracking
New forecast layout! Learn more

10-Day Weather Forecast

Advertisements
Track Severe Weather on mobile